sensor_id;sensor_type;location;lat;lon;timestamp;P1;durP1;ratioP1;P2;durP2;ratioP2
75470;SDS011;64051;46.320;48.028;2023-03-23T00:01:05;29.73;;;15.90;;
75470;SDS011;64051;46.320;48.028;2023-03-23T00:03:32;34.78;;;16.20;;
75470;SDS011;64051;46.320;48.028;2023-03-23T00:05:58;34.30;;;16.00;;
75470;SDS011;64051;46.320;48.028;2023-03-23T00:08:33;32.15;;;16.48;;
75470;SDS011;64051;46.320;48.028;2023-03-23T00:11:06;31.92;;;17.20;;
75470;SDS011;64051;46.320;48.028;2023-03-23T00:13:32;35.10;;;17.40;;
75470;SDS011;64051;46.320;48.028;2023-03-23T00:15:59;31.90;;;17.30;;
75470;SDS011;64051;46.320;48.028;2023-03-23T00:18:25;34.20;;;17.70;;
75470;SDS011;64051;46.320;48.028;2023-03-23T00:20:52;33.00;;;17.13;;
75470;SDS011;64051;46.320;48.028;2023-03-23T00:23:20;32.72;;;16.60;;
75470;SDS011;64051;46.320;48.028;2023-03-23T00:25:48;30.58;;;16.98;;
75470;SDS011;64051;46.320;48.028;2023-03-23T00:30:54;32.78;;;15.68;;
75470;SDS011;64051;46.320;48.028;2023-03-23T00:33:24;36.55;;;16.83;;
75470;SDS011;64051;46.320;48.028;2023-03-23T00:35:53;38.58;;;16.00;;
75470;SDS011;64051;46.320;48.028;2023-03-23T00:38:20;39.53;;;16.17;;
75470;SDS011;64051;46.320;48.028;2023-03-23T00:40:52;39.83;;;16.67;;
75470;SDS011;64051;46.320;48.028;2023-03-23T00:43:20;31.30;;;15.63;;
75470;SDS011;64051;46.320;48.028;2023-03-23T00:45:49;34.83;;;16.25;;
75470;SDS011;64051;46.320;48.028;2023-03-23T00:48:19;31.92;;;15.75;;
75470;SDS011;64051;46.320;48.028;2023-03-23T00:50:46;28.85;;;16.20;;
75470;SDS011;64051;46.320;48.028;2023-03-23T00:53:12;30.58;;;15.95;;
75470;SDS011;64051;46.320;48.028;2023-03-23T00:55:40;30.58;;;16.52;;
75470;SDS011;64051;46.320;48.028;2023-03-23T00:58:10;31.60;;;16.08;;
75470;SDS011;64051;46.320;48.028;2023-03-23T01:00:37;31.08;;;15.32;;
75470;SDS011;64051;46.320;48.028;2023-03-23T01:03:04;26.27;;;14.43;;
75470;SDS011;64051;46.320;48.028;2023-03-23T01:05:34;24.88;;;14.43;;
75470;SDS011;64051;46.320;48.028;2023-03-23T01:08:02;28.38;;;14.23;;
75470;SDS011;64051;46.320;48.028;2023-03-23T01:10:30;30.10;;;15.85;;
75470;SDS011;64051;46.320;48.028;2023-03-23T01:13:00;30.70;;;16.38;;
75470;SDS011;64051;46.320;48.028;2023-03-23T01:15:27;33.83;;;17.17;;
75470;SDS011;64051;46.320;48.028;2023-03-23T01:17:53;31.70;;;15.98;;
75470;SDS011;64051;46.320;48.028;2023-03-23T01:20:19;33.90;;;16.38;;
75470;SDS011;64051;46.320;48.028;2023-03-23T01:22:46;33.38;;;17.00;;
75470;SDS011;64051;46.320;48.028;2023-03-23T01:25:12;41.03;;;17.83;;
75470;SDS011;64051;46.320;48.028;2023-03-23T01:27:39;34.78;;;16.58;;
75470;SDS011;64051;46.320;48.028;2023-03-23T01:30:06;39.33;;;16.95;;
75470;SDS011;64051;46.320;48.028;2023-03-23T01:32:33;35.05;;;17.02;;
75470;SDS011;64051;46.320;48.028;2023-03-23T01:35:00;35.25;;;16.73;;
75470;SDS011;64051;46.320;48.028;2023-03-23T01:37:26;31.45;;;14.63;;
75470;SDS011;64051;46.320;48.028;2023-03-23T01:39:55;35.40;;;18.88;;
75470;SDS011;64051;46.320;48.028;2023-03-23T01:42:25;26.60;;;12.15;;
75470;SDS011;64051;46.320;48.028;2023-03-23T01:47:54;20.60;;;10.35;;
75470;SDS011;64051;46.320;48.028;2023-03-23T01:50:25;21.38;;;9.43;;
75470;SDS011;64051;46.320;48.028;2023-03-23T01:52:54;18.38;;;9.20;;
75470;SDS011;64051;46.320;48.028;2023-03-23T01:55:23;24.77;;;9.27;;
75470;SDS011;64051;46.320;48.028;2023-03-23T01:57:53;18.38;;;7.57;;
75470;SDS011;64051;46.320;48.028;2023-03-23T02:00:20;17.00;;;6.75;;
75470;SDS011;64051;46.320;48.028;2023-03-23T02:02:51;17.60;;;8.63;;
75470;SDS011;64051;46.320;48.028;2023-03-23T02:05:24;20.45;;;8.18;;
75470;SDS011;64051;46.320;48.028;2023-03-23T02:08:01;16.08;;;6.80;;
75470;SDS011;64051;46.320;48.028;2023-03-23T02:10:32;17.92;;;7.25;;
75470;SDS011;64051;46.320;48.028;2023-03-23T02:12:59;16.25;;;6.97;;
75470;SDS011;64051;46.320;48.028;2023-03-23T02:15:32;18.88;;;8.30;;
75470;SDS011;64051;46.320;48.028;2023-03-23T02:18:23;12.07;;;5.60;;
75470;SDS011;64051;46.320;48.028;2023-03-23T02:21:47;23.38;;;5.90;;
75470;SDS011;64051;46.320;48.028;2023-03-23T02:27:02;17.40;;;6.38;;
75470;SDS011;64051;46.320;48.028;2023-03-23T02:29:58;14.80;;;6.90;;
75470;SDS011;64051;46.320;48.028;2023-03-23T02:33:12;23.45;;;8.55;;
75470;SDS011;64051;46.320;48.028;2023-03-23T02:36:22;40.28;;;8.95;;
75470;SDS011;64051;46.320;48.028;2023-03-23T02:38:54;25.10;;;8.73;;
75470;SDS011;64051;46.320;48.028;2023-03-23T02:41:22;20.70;;;8.60;;
75470;SDS011;64051;46.320;48.028;2023-03-23T02:43:52;15.43;;;6.50;;
75470;SDS011;64051;46.320;48.028;2023-03-23T02:46:20;23.33;;;6.85;;
75470;SDS011;64051;46.320;48.028;2023-03-23T02:48:48;21.75;;;6.47;;
75470;SDS011;64051;46.320;48.028;2023-03-23T02:51:18;25.75;;;6.03;;
75470;SDS011;64051;46.320;48.028;2023-03-23T02:53:46;15.05;;;5.32;;
75470;SDS011;64051;46.320;48.028;2023-03-23T02:56:16;48.10;;;6.18;;
75470;SDS011;64051;46.320;48.028;2023-03-23T02:58:44;13.70;;;5.43;;
75470;SDS011;64051;46.320;48.028;2023-03-23T03:03:52;34.65;;;5.65;;
75470;SDS011;64051;46.320;48.028;2023-03-23T03:15:06;27.50;;;9.07;;
75470;SDS011;64051;46.320;48.028;2023-03-23T03:17:41;14.65;;;6.65;;
75470;SDS011;64051;46.320;48.028;2023-03-23T03:20:14;12.23;;;4.38;;
75470;SDS011;64051;46.320;48.028;2023-03-23T03:22:42;13.98;;;3.97;;
75470;SDS011;64051;46.320;48.028;2023-03-23T03:25:09;12.70;;;3.90;;
75470;SDS011;64051;46.320;48.028;2023-03-23T03:27:42;24.33;;;4.28;;
75470;SDS011;64051;46.320;48.028;2023-03-23T03:30:16;8.93;;;3.72;;
75470;SDS011;64051;46.320;48.028;2023-03-23T03:32:48;7.70;;;3.38;;
75470;SDS011;64051;46.320;48.028;2023-03-23T03:35:20;16.90;;;4.90;;
75470;SDS011;64051;46.320;48.028;2023-03-23T03:37:48;16.17;;;4.35;;
75470;SDS011;64051;46.320;48.028;2023-03-23T03:40:17;12.93;;;4.50;;
75470;SDS011;64051;46.320;48.028;2023-03-23T03:42:44;18.15;;;4.88;;
75470;SDS011;64051;46.320;48.028;2023-03-23T03:45:13;16.73;;;5.72;;
75470;SDS011;64051;46.320;48.028;2023-03-23T03:47:43;13.93;;;5.82;;
75470;SDS011;64051;46.320;48.028;2023-03-23T03:50:10;11.15;;;4.32;;
75470;SDS011;64051;46.320;48.028;2023-03-23T03:52:36;13.50;;;4.57;;
75470;SDS011;64051;46.320;48.028;2023-03-23T03:55:04;12.48;;;4.72;;
75470;SDS011;64051;46.320;48.028;2023-03-23T03:57:33;10.77;;;4.72;;
75470;SDS011;64051;46.320;48.028;2023-03-23T04:00:22;12.57;;;4.72;;
75470;SDS011;64051;46.320;48.028;2023-03-23T04:02:49;9.60;;;4.43;;
75470;SDS011;64051;46.320;48.028;2023-03-23T04:05:38;14.05;;;4.72;;
75470;SDS011;64051;46.320;48.028;2023-03-23T04:08:08;13.35;;;5.10;;
75470;SDS011;64051;46.320;48.028;2023-03-23T04:10:36;12.32;;;4.90;;
75470;SDS011;64051;46.320;48.028;2023-03-23T04:13:05;14.77;;;5.25;;
75470;SDS011;64051;46.320;48.028;2023-03-23T04:15:51;15.05;;;5.60;;
75470;SDS011;64051;46.320;48.028;2023-03-23T04:18:17;17.73;;;5.18;;
75470;SDS011;64051;46.320;48.028;2023-03-23T04:20:46;18.02;;;5.03;;
75470;SDS011;64051;46.320;48.028;2023-03-23T04:23:18;14.48;;;5.20;;
75470;SDS011;64051;46.320;48.028;2023-03-23T04:25:51;17.40;;;5.40;;
75470;SDS011;64051;46.320;48.028;2023-03-23T04:28:24;12.90;;;4.80;;
75470;SDS011;64051;46.320;48.028;2023-03-23T04:31:16;12.65;;;4.82;;
75470;SDS011;64051;46.320;48.028;2023-03-23T04:33:46;17.40;;;4.63;;
75470;SDS011;64051;46.320;48.028;2023-03-23T04:36:14;12.98;;;5.55;;
75470;SDS011;64051;46.320;48.028;2023-03-23T04:38:50;11.85;;;4.88;;
75470;SDS011;64051;46.320;48.028;2023-03-23T04:41:21;12.60;;;5.80;;
75470;SDS011;64051;46.320;48.028;2023-03-23T04:44:01;11.05;;;5.32;;
75470;SDS011;64051;46.320;48.028;2023-03-23T04:46:34;13.80;;;5.32;;
75470;SDS011;64051;46.320;48.028;2023-03-23T04:49:07;14.13;;;5.50;;
75470;SDS011;64051;46.320;48.028;2023-03-23T04:51:37;12.23;;;4.70;;
75470;SDS011;64051;46.320;48.028;2023-03-23T04:54:30;18.33;;;5.55;;
75470;SDS011;64051;46.320;48.028;2023-03-23T04:57:00;15.60;;;5.65;;
75470;SDS011;64051;46.320;48.028;2023-03-23T04:59:26;16.42;;;5.53;;
75470;SDS011;64051;46.320;48.028;2023-03-23T05:02:13;14.27;;;5.90;;
75470;SDS011;64051;46.320;48.028;2023-03-23T05:04:42;18.10;;;6.20;;
75470;SDS011;64051;46.320;48.028;2023-03-23T05:07:13;12.73;;;4.50;;
75470;SDS011;64051;46.320;48.028;2023-03-23T05:09:48;12.77;;;4.70;;
75470;SDS011;64051;46.320;48.028;2023-03-23T05:12:17;13.38;;;4.40;;
75470;SDS011;64051;46.320;48.028;2023-03-23T05:14:56;14.35;;;4.97;;
75470;SDS011;64051;46.320;48.028;2023-03-23T05:17:30;12.95;;;4.90;;
75470;SDS011;64051;46.320;48.028;2023-03-23T05:20:00;14.93;;;5.20;;
75470;SDS011;64051;46.320;48.028;2023-03-23T05:22:41;18.35;;;5.60;;
75470;SDS011;64051;46.320;48.028;2023-03-23T05:25:08;18.38;;;6.68;;
75470;SDS011;64051;46.320;48.028;2023-03-23T05:27:37;16.88;;;6.05;;
75470;SDS011;64051;46.320;48.028;2023-03-23T05:30:16;19.02;;;7.28;;
75470;SDS011;64051;46.320;48.028;2023-03-23T05:32:43;21.67;;;6.75;;
75470;SDS011;64051;46.320;48.028;2023-03-23T05:35:30;16.77;;;6.50;;
75470;SDS011;64051;46.320;48.028;2023-03-23T05:37:56;17.38;;;5.97;;
75470;SDS011;64051;46.320;48.028;2023-03-23T05:40:24;15.52;;;4.97;;
75470;SDS011;64051;46.320;48.028;2023-03-23T05:42:56;11.75;;;4.97;;
75470;SDS011;64051;46.320;48.028;2023-03-23T05:45:33;13.00;;;4.20;;
75470;SDS011;64051;46.320;48.028;2023-03-23T05:48:02;12.10;;;3.33;;
75470;SDS011;64051;46.320;48.028;2023-03-23T05:50:28;12.52;;;3.50;;
75470;SDS011;64051;46.320;48.028;2023-03-23T05:52:55;8.73;;;3.13;;
75470;SDS011;64051;46.320;48.028;2023-03-23T05:55:22;12.25;;;3.38;;
75470;SDS011;64051;46.320;48.028;2023-03-23T05:58:20;11.07;;;2.88;;
75470;SDS011;64051;46.320;48.028;2023-03-23T06:00:49;10.95;;;2.95;;
75470;SDS011;64051;46.320;48.028;2023-03-23T06:03:21;12.27;;;3.15;;
75470;SDS011;64051;46.320;48.028;2023-03-23T06:06:10;14.15;;;3.47;;
75470;SDS011;64051;46.320;48.028;2023-03-23T06:08:53;15.10;;;3.13;;
75470;SDS011;64051;46.320;48.028;2023-03-23T06:11:33;8.02;;;2.45;;
75470;SDS011;64051;46.320;48.028;2023-03-23T06:14:19;10.95;;;2.85;;
75470;SDS011;64051;46.320;48.028;2023-03-23T06:16:47;11.20;;;3.10;;
75470;SDS011;64051;46.320;48.028;2023-03-23T06:19:16;14.70;;;3.30;;
75470;SDS011;64051;46.320;48.028;2023-03-23T06:21:54;11.23;;;3.40;;
75470;SDS011;64051;46.320;48.028;2023-03-23T06:24:43;11.68;;;2.88;;
75470;SDS011;64051;46.320;48.028;2023-03-23T06:27:12;10.32;;;2.92;;
75470;SDS011;64051;46.320;48.028;2023-03-23T06:29:41;11.75;;;2.92;;
75470;SDS011;64051;46.320;48.028;2023-03-23T06:32:09;14.15;;;3.15;;
75470;SDS011;64051;46.320;48.028;2023-03-23T06:34:39;12.88;;;2.95;;
75470;SDS011;64051;46.320;48.028;2023-03-23T06:37:28;12.13;;;2.72;;
75470;SDS011;64051;46.320;48.028;2023-03-23T06:40:03;12.30;;;3.08;;
75470;SDS011;64051;46.320;48.028;2023-03-23T06:42:38;12.35;;;2.78;;
75470;SDS011;64051;46.320;48.028;2023-03-23T06:45:33;12.20;;;3.35;;
75470;SDS011;64051;46.320;48.028;2023-03-23T06:48:19;15.00;;;4.00;;
75470;SDS011;64051;46.320;48.028;2023-03-23T06:50:46;17.33;;;3.65;;
75470;SDS011;64051;46.320;48.028;2023-03-23T06:53:14;16.00;;;3.65;;
75470;SDS011;64051;46.320;48.028;2023-03-23T06:55:48;23.10;;;4.15;;
75470;SDS011;64051;46.320;48.028;2023-03-23T06:58:14;12.25;;;2.92;;
75470;SDS011;64051;46.320;48.028;2023-03-23T07:00:46;15.40;;;3.28;;
75470;SDS011;64051;46.320;48.028;2023-03-23T07:03:27;9.68;;;3.38;;
75470;SDS011;64051;46.320;48.028;2023-03-23T07:05:58;19.38;;;3.92;;
75470;SDS011;64051;46.320;48.028;2023-03-23T07:08:28;16.17;;;3.33;;
75470;SDS011;64051;46.320;48.028;2023-03-23T07:10:54;14.88;;;3.58;;
75470;SDS011;64051;46.320;48.028;2023-03-23T07:13:26;15.50;;;3.95;;
75470;SDS011;64051;46.320;48.028;2023-03-23T07:15:58;13.63;;;3.83;;
75470;SDS011;64051;46.320;48.028;2023-03-23T07:18:30;16.80;;;3.72;;
75470;SDS011;64051;46.320;48.028;2023-03-23T07:21:04;15.57;;;3.75;;
75470;SDS011;64051;46.320;48.028;2023-03-23T07:23:31;18.52;;;4.35;;
75470;SDS011;64051;46.320;48.028;2023-03-23T07:26:05;19.25;;;3.75;;
75470;SDS011;64051;46.320;48.028;2023-03-23T07:28:38;14.25;;;3.83;;
75470;SDS011;64051;46.320;48.028;2023-03-23T07:31:26;21.15;;;8.32;;
75470;SDS011;64051;46.320;48.028;2023-03-23T07:33:54;19.13;;;6.00;;
75470;SDS011;64051;46.320;48.028;2023-03-23T07:36:25;20.17;;;4.28;;
75470;SDS011;64051;46.320;48.028;2023-03-23T07:38:51;14.85;;;4.00;;
75470;SDS011;64051;46.320;48.028;2023-03-23T07:41:24;14.15;;;3.78;;
75470;SDS011;64051;46.320;48.028;2023-03-23T07:43:51;16.58;;;3.53;;
75470;SDS011;64051;46.320;48.028;2023-03-23T07:46:29;16.98;;;3.88;;
75470;SDS011;64051;46.320;48.028;2023-03-23T07:49:03;14.40;;;4.13;;
75470;SDS011;64051;46.320;48.028;2023-03-23T07:51:40;21.08;;;4.95;;
75470;SDS011;64051;46.320;48.028;2023-03-23T07:54:12;16.45;;;4.82;;
75470;SDS011;64051;46.320;48.028;2023-03-23T07:56:52;20.48;;;3.90;;
75470;SDS011;64051;46.320;48.028;2023-03-23T07:59:23;18.05;;;4.05;;
75470;SDS011;64051;46.320;48.028;2023-03-23T08:01:51;18.10;;;3.83;;
75470;SDS011;64051;46.320;48.028;2023-03-23T08:04:37;17.00;;;3.90;;
75470;SDS011;64051;46.320;48.028;2023-03-23T08:07:26;16.58;;;4.32;;
75470;SDS011;64051;46.320;48.028;2023-03-23T08:10:04;14.43;;;3.70;;
75470;SDS011;64051;46.320;48.028;2023-03-23T08:12:58;15.00;;;3.50;;
75470;SDS011;64051;46.320;48.028;2023-03-23T08:15:51;16.90;;;3.75;;
75470;SDS011;64051;46.320;48.028;2023-03-23T08:18:27;15.20;;;3.55;;
75470;SDS011;64051;46.320;48.028;2023-03-23T08:21:17;12.70;;;3.63;;
75470;SDS011;64051;46.320;48.028;2023-03-23T08:24:04;11.90;;;3.25;;
75470;SDS011;64051;46.320;48.028;2023-03-23T08:27:06;11.55;;;2.80;;
75470;SDS011;64051;46.320;48.028;2023-03-23T08:30:09;15.73;;;3.10;;
75470;SDS011;64051;46.320;48.028;2023-03-23T08:33:12;14.55;;;3.40;;
75470;SDS011;64051;46.320;48.028;2023-03-23T08:35:59;13.57;;;2.88;;
75470;SDS011;64051;46.320;48.028;2023-03-23T08:38:46;13.63;;;3.25;;
75470;SDS011;64051;46.320;48.028;2023-03-23T08:41:33;15.88;;;3.25;;
75470;SDS011;64051;46.320;48.028;2023-03-23T08:44:25;11.85;;;3.05;;
75470;SDS011;64051;46.320;48.028;2023-03-23T08:47:11;13.55;;;3.22;;
75470;SDS011;64051;46.320;48.028;2023-03-23T08:49:53;15.38;;;3.28;;
75470;SDS011;64051;46.320;48.028;2023-03-23T08:52:45;11.10;;;3.22;;
75470;SDS011;64051;46.320;48.028;2023-03-23T08:55:39;13.90;;;3.03;;
75470;SDS011;64051;46.320;48.028;2023-03-23T08:58:28;14.38;;;4.13;;
75470;SDS011;64051;46.320;48.028;2023-03-23T09:00:55;11.57;;;2.80;;
75470;SDS011;64051;46.320;48.028;2023-03-23T09:03:39;15.85;;;3.20;;
75470;SDS011;64051;46.320;48.028;2023-03-23T09:06:31;14.40;;;3.22;;
75470;SDS011;64051;46.320;48.028;2023-03-23T09:09:01;12.32;;;3.00;;
75470;SDS011;64051;46.320;48.028;2023-03-23T09:11:34;15.93;;;3.60;;
75470;SDS011;64051;46.320;48.028;2023-03-23T09:14:04;11.13;;;2.78;;
75470;SDS011;64051;46.320;48.028;2023-03-23T09:16:38;13.95;;;3.53;;
75470;SDS011;64051;46.320;48.028;2023-03-23T09:19:05;12.60;;;2.75;;
75470;SDS011;64051;46.320;48.028;2023-03-23T09:21:37;12.75;;;2.83;;
75470;SDS011;64051;46.320;48.028;2023-03-23T09:24:06;17.05;;;3.00;;
75470;SDS011;64051;46.320;48.028;2023-03-23T09:26:32;11.80;;;2.70;;
75470;SDS011;64051;46.320;48.028;2023-03-23T09:29:00;14.70;;;3.58;;
75470;SDS011;64051;46.320;48.028;2023-03-23T09:31:26;18.15;;;2.97;;
75470;SDS011;64051;46.320;48.028;2023-03-23T09:33:54;12.32;;;2.70;;
75470;SDS011;64051;46.320;48.028;2023-03-23T09:36:22;11.43;;;2.65;;
75470;SDS011;64051;46.320;48.028;2023-03-23T09:38:51;12.82;;;2.85;;
75470;SDS011;64051;46.320;48.028;2023-03-23T09:55:18;8.75;;;2.30;;
75470;SDS011;64051;46.320;48.028;2023-03-23T09:58:03;6.68;;;1.98;;
75470;SDS011;64051;46.320;48.028;2023-03-23T10:01:15;14.68;;;7.13;;
75470;SDS011;64051;46.320;48.028;2023-03-23T10:03:39;9.48;;;2.63;;
75470;SDS011;64051;46.320;48.028;2023-03-23T10:06:14;7.22;;;2.58;;
75470;SDS011;64051;46.320;48.028;2023-03-23T10:08:49;7.45;;;2.05;;
75470;SDS011;64051;46.320;48.028;2023-03-23T10:14:09;8.57;;;2.30;;
75470;SDS011;64051;46.320;48.028;2023-03-23T10:22:10;10.38;;;2.47;;
75470;SDS011;64051;46.320;48.028;2023-03-23T10:24:45;10.27;;;2.88;;
75470;SDS011;64051;46.320;48.028;2023-03-23T10:27:24;10.80;;;3.80;;
75470;SDS011;64051;46.320;48.028;2023-03-23T10:30:10;8.05;;;2.50;;
75470;SDS011;64051;46.320;48.028;2023-03-23T10:32:52;8.07;;;2.85;;
75470;SDS011;64051;46.320;48.028;2023-03-23T10:35:26;6.65;;;2.88;;
75470;SDS011;64051;46.320;48.028;2023-03-23T10:38:04;11.82;;;4.28;;
75470;SDS011;64051;46.320;48.028;2023-03-23T10:40:38;9.27;;;2.25;;
75470;SDS011;64051;46.320;48.028;2023-03-23T10:43:17;11.45;;;3.30;;
75470;SDS011;64051;46.320;48.028;2023-03-23T10:45:52;9.45;;;3.20;;
75470;SDS011;64051;46.320;48.028;2023-03-23T10:48:36;14.00;;;2.45;;
75470;SDS011;64051;46.320;48.028;2023-03-23T10:51:04;7.25;;;2.03;;
75470;SDS011;64051;46.320;48.028;2023-03-23T10:53:41;13.57;;;2.67;;
75470;SDS011;64051;46.320;48.028;2023-03-23T10:56:23;12.52;;;2.70;;
75470;SDS011;64051;46.320;48.028;2023-03-23T10:58:59;10.85;;;2.75;;
75470;SDS011;64051;46.320;48.028;2023-03-23T11:01:41;16.17;;;3.35;;
75470;SDS011;64051;46.320;48.028;2023-03-23T11:04:13;8.50;;;2.80;;
75470;SDS011;64051;46.320;48.028;2023-03-23T11:06:57;12.20;;;2.47;;
75470;SDS011;64051;46.320;48.028;2023-03-23T11:09:38;11.23;;;2.05;;
75470;SDS011;64051;46.320;48.028;2023-03-23T11:12:17;12.75;;;2.53;;
75470;SDS011;64051;46.320;48.028;2023-03-23T11:14:44;8.50;;;2.42;;
75470;SDS011;64051;46.320;48.028;2023-03-23T11:17:23;10.68;;;2.53;;
75470;SDS011;64051;46.320;48.028;2023-03-23T11:19:52;9.80;;;3.25;;
75470;SDS011;64051;46.320;48.028;2023-03-23T11:22:28;11.27;;;3.30;;
75470;SDS011;64051;46.320;48.028;2023-03-23T11:25:00;11.02;;;2.80;;
75470;SDS011;64051;46.320;48.028;2023-03-23T11:27:31;14.50;;;3.85;;
75470;SDS011;64051;46.320;48.028;2023-03-23T11:32:37;7.97;;;2.38;;
75470;SDS011;64051;46.320;48.028;2023-03-23T11:35:31;11.50;;;3.83;;
75470;SDS011;64051;46.320;48.028;2023-03-23T11:37:58;19.27;;;6.72;;
75470;SDS011;64051;46.320;48.028;2023-03-23T11:40:25;23.33;;;15.45;;
75470;SDS011;64051;46.320;48.028;2023-03-23T11:50:54;12.63;;;5.28;;
75470;SDS011;64051;46.320;48.028;2023-03-23T11:58:54;15.02;;;3.72;;
75470;SDS011;64051;46.320;48.028;2023-03-23T12:01:47;11.57;;;4.10;;
75470;SDS011;64051;46.320;48.028;2023-03-23T12:10:18;10.88;;;4.15;;
75470;SDS011;64051;46.320;48.028;2023-03-23T12:12:57;12.77;;;3.35;;
75470;SDS011;64051;46.320;48.028;2023-03-23T12:21:08;8.88;;;2.47;;
75470;SDS011;64051;46.320;48.028;2023-03-23T12:26:34;10.88;;;3.30;;
75470;SDS011;64051;46.320;48.028;2023-03-23T12:40:48;9.82;;;3.70;;
75470;SDS011;64051;46.320;48.028;2023-03-23T12:43:25;13.70;;;3.92;;
75470;SDS011;64051;46.320;48.028;2023-03-23T12:48:43;12.32;;;3.45;;
75470;SDS011;64051;46.320;48.028;2023-03-23T12:54:24;10.05;;;3.38;;
75470;SDS011;64051;46.320;48.028;2023-03-23T13:05:13;16.30;;;6.70;;
75470;SDS011;64051;46.320;48.028;2023-03-23T13:10:50;23.17;;;6.25;;
75470;SDS011;64051;46.320;48.028;2023-03-23T13:13:23;27.33;;;6.80;;
75470;SDS011;64051;46.320;48.028;2023-03-23T13:21:26;16.77;;;4.93;;
75470;SDS011;64051;46.320;48.028;2023-03-23T13:24:01;14.93;;;3.97;;
75470;SDS011;64051;46.320;48.028;2023-03-23T13:26:37;14.13;;;4.32;;
75470;SDS011;64051;46.320;48.028;2023-03-23T13:29:08;23.52;;;7.78;;
75470;SDS011;64051;46.320;48.028;2023-03-23T13:31:39;15.05;;;5.25;;
75470;SDS011;64051;46.320;48.028;2023-03-23T13:36:55;16.25;;;4.15;;
75470;SDS011;64051;46.320;48.028;2023-03-23T13:39:50;14.40;;;4.60;;
75470;SDS011;64051;46.320;48.028;2023-03-23T13:42:21;13.23;;;4.80;;
75470;SDS011;64051;46.320;48.028;2023-03-23T13:49:53;14.68;;;5.22;;
75470;SDS011;64051;46.320;48.028;2023-03-23T14:05:50;20.80;;;6.13;;
75470;SDS011;64051;46.320;48.028;2023-03-23T14:08:25;20.83;;;6.20;;
75470;SDS011;64051;46.320;48.028;2023-03-23T14:11:10;15.60;;;6.45;;
75470;SDS011;64051;46.320;48.028;2023-03-23T14:16:31;15.70;;;5.90;;
75470;SDS011;64051;46.320;48.028;2023-03-23T14:21:58;15.27;;;5.63;;
75470;SDS011;64051;46.320;48.028;2023-03-23T14:24:30;16.85;;;5.47;;
75470;SDS011;64051;46.320;48.028;2023-03-23T14:27:19;12.20;;;5.10;;
75470;SDS011;64051;46.320;48.028;2023-03-23T14:30:02;13.77;;;4.93;;
75470;SDS011;64051;46.320;48.028;2023-03-23T14:32:31;14.90;;;5.05;;
75470;SDS011;64051;46.320;48.028;2023-03-23T14:35:04;13.90;;;5.07;;
75470;SDS011;64051;46.320;48.028;2023-03-23T14:37:34;12.25;;;4.72;;
75470;SDS011;64051;46.320;48.028;2023-03-23T14:40:08;12.20;;;4.72;;
75470;SDS011;64051;46.320;48.028;2023-03-23T14:42:56;12.57;;;5.18;;
75470;SDS011;64051;46.320;48.028;2023-03-23T14:45:24;14.07;;;5.18;;
75470;SDS011;64051;46.320;48.028;2023-03-23T14:48:00;17.95;;;6.38;;
75470;SDS011;64051;46.320;48.028;2023-03-23T14:50:36;24.42;;;7.60;;
75470;SDS011;64051;46.320;48.028;2023-03-23T14:55:41;18.60;;;6.35;;
75470;SDS011;64051;46.320;48.028;2023-03-23T14:58:13;19.20;;;6.20;;
75470;SDS011;64051;46.320;48.028;2023-03-23T15:00:45;23.67;;;5.88;;
75470;SDS011;64051;46.320;48.028;2023-03-23T15:03:37;14.85;;;5.30;;
75470;SDS011;64051;46.320;48.028;2023-03-23T15:06:20;19.58;;;7.05;;
75470;SDS011;64051;46.320;48.028;2023-03-23T15:08:50;20.58;;;7.65;;
75470;SDS011;64051;46.320;48.028;2023-03-23T15:11:33;16.92;;;6.70;;
75470;SDS011;64051;46.320;48.028;2023-03-23T15:14:08;20.85;;;6.97;;
75470;SDS011;64051;46.320;48.028;2023-03-23T15:16:47;18.02;;;6.28;;
75470;SDS011;64051;46.320;48.028;2023-03-23T15:22:23;20.17;;;7.97;;
75470;SDS011;64051;46.320;48.028;2023-03-23T15:25:12;20.60;;;9.80;;
75470;SDS011;64051;46.320;48.028;2023-03-23T15:27:54;20.98;;;9.35;;
75470;SDS011;64051;46.320;48.028;2023-03-23T15:33:09;26.10;;;10.30;;
75470;SDS011;64051;46.320;48.028;2023-03-23T15:35:46;26.15;;;9.13;;
75470;SDS011;64051;46.320;48.028;2023-03-23T15:38:18;21.83;;;7.15;;
75470;SDS011;64051;46.320;48.028;2023-03-23T15:40:56;19.30;;;6.30;;
75470;SDS011;64051;46.320;48.028;2023-03-23T15:43:53;21.02;;;5.78;;
75470;SDS011;64051;46.320;48.028;2023-03-23T15:46:27;18.25;;;6.32;;
75470;SDS011;64051;46.320;48.028;2023-03-23T15:49:11;15.93;;;6.47;;
75470;SDS011;64051;46.320;48.028;2023-03-23T15:51:44;19.25;;;7.25;;
75470;SDS011;64051;46.320;48.028;2023-03-23T15:54:12;22.73;;;8.43;;
75470;SDS011;64051;46.320;48.028;2023-03-23T15:56:45;23.73;;;8.80;;
75470;SDS011;64051;46.320;48.028;2023-03-23T15:59:12;19.15;;;7.93;;
75470;SDS011;64051;46.320;48.028;2023-03-23T16:01:44;22.92;;;9.45;;
75470;SDS011;64051;46.320;48.028;2023-03-23T16:04:16;25.42;;;8.13;;
75470;SDS011;64051;46.320;48.028;2023-03-23T16:06:47;20.75;;;8.00;;
75470;SDS011;64051;46.320;48.028;2023-03-23T16:09:21;18.73;;;7.60;;
75470;SDS011;64051;46.320;48.028;2023-03-23T16:11:50;18.00;;;8.10;;
75470;SDS011;64051;46.320;48.028;2023-03-23T16:14:16;21.20;;;8.30;;
75470;SDS011;64051;46.320;48.028;2023-03-23T16:16:46;21.63;;;8.68;;
75470;SDS011;64051;46.320;48.028;2023-03-23T16:19:15;19.52;;;8.48;;
75470;SDS011;64051;46.320;48.028;2023-03-23T16:21:51;20.27;;;9.00;;
75470;SDS011;64051;46.320;48.028;2023-03-23T16:24:23;21.85;;;9.68;;
75470;SDS011;64051;46.320;48.028;2023-03-23T16:26:51;22.33;;;10.38;;
75470;SDS011;64051;46.320;48.028;2023-03-23T16:29:30;24.08;;;10.23;;
75470;SDS011;64051;46.320;48.028;2023-03-23T16:31:56;18.65;;;9.27;;
75470;SDS011;64051;46.320;48.028;2023-03-23T16:34:28;23.05;;;8.88;;
75470;SDS011;64051;46.320;48.028;2023-03-23T16:37:09;18.65;;;7.95;;
75470;SDS011;64051;46.320;48.028;2023-03-23T16:39:44;26.73;;;8.38;;
75470;SDS011;64051;46.320;48.028;2023-03-23T16:42:18;23.80;;;8.57;;
75470;SDS011;64051;46.320;48.028;2023-03-23T16:44:59;25.25;;;8.27;;
75470;SDS011;64051;46.320;48.028;2023-03-23T16:47:31;21.40;;;8.35;;
75470;SDS011;64051;46.320;48.028;2023-03-23T16:50:11;19.00;;;8.18;;
75470;SDS011;64051;46.320;48.028;2023-03-23T16:52:39;18.13;;;7.95;;
75470;SDS011;64051;46.320;48.028;2023-03-23T16:55:07;17.08;;;7.35;;
75470;SDS011;64051;46.320;48.028;2023-03-23T16:57:34;20.38;;;8.48;;
75470;SDS011;64051;46.320;48.028;2023-03-23T17:00:06;24.95;;;8.85;;
75470;SDS011;64051;46.320;48.028;2023-03-23T17:02:39;19.50;;;7.80;;
75470;SDS011;64051;46.320;48.028;2023-03-23T17:05:12;19.58;;;7.35;;
75470;SDS011;64051;46.320;48.028;2023-03-23T17:07:57;23.95;;;8.30;;
75470;SDS011;64051;46.320;48.028;2023-03-23T17:10:28;20.27;;;8.77;;
75470;SDS011;64051;46.320;48.028;2023-03-23T17:13:01;17.90;;;8.70;;
75470;SDS011;64051;46.320;48.028;2023-03-23T17:15:27;24.25;;;11.40;;
75470;SDS011;64051;46.320;48.028;2023-03-23T17:18:22;26.67;;;13.45;;
75470;SDS011;64051;46.320;48.028;2023-03-23T17:20:50;34.05;;;14.27;;
75470;SDS011;64051;46.320;48.028;2023-03-23T17:23:22;25.45;;;13.32;;
75470;SDS011;64051;46.320;48.028;2023-03-23T17:25:58;39.38;;;14.38;;